• Join FlightAware (Why Join?)
  • Login
  • US Flag 
11:37AM EDT


 

Airport Tracker/Info


-or-


 

Live Flight TrackerFlight Track Log ✈ SWA1046 ✈ 08-May-2013 ✈ KOKC - KMDW

Flight Track Log - Related Links

Times and Time Zones

All times are in EDT time to prevent confusion due to time zone crossing. See the SWA1046 flight status page for this flight to view local times or setup timezone preferences in your user account.

Time Position Orientation Groundspeed Altitude Reporting Facility
EDT Latitude Longitude Course Direction KTS MPH feet Rate Location/Type
06:02PM 35.3581 -97.5994 194° South 148 170 2,800  Level Fort Worth Center
06:03PM 35.3436 -97.5511 110° East 230 265 4,700 2,160 Climbing Fort Worth Center
06:05PM 35.4453 -97.4019 50° Northeast 278 320 9,300 2,040 Climbing Kansas City Center
06:06PM 35.4928 -97.3003 60° Northeast 322 371 11,100 2,280 Climbing Kansas City Center
06:07PM 35.5475 -97.1875 59° Northeast 374 430 14,100 2,760 Climbing Kansas City Center
06:08PM 35.6039 -97.0692 60° Northeast 391 450 16,900 2,760 Climbing Kansas City Center
06:09PM 35.6636 -96.9417 60° Northeast 422 486 19,800 2,520 Climbing Kansas City Center
06:10PM 35.7253 -96.8111 60° Northeast 436 502 22,200 2,460 Climbing Kansas City Center
06:11PM 35.8017 -96.6461 60° Northeast 458 527 25,000 2,220 Climbing Kansas City Center
06:12PM 35.8667 -96.5067 60° Northeast 467 537 26,800 1,740 Climbing Kansas City Center
06:13PM 35.9258 -96.3764 61° Northeast 478 550 28,700 2,100 Climbing Kansas City Center
06:14PM 36.0058 -96.2033 60° Northeast 482 555 31,200 2,100 Climbing Kansas City Center
06:15PM 36.0714 -96.0600 60° Northeast 480 552 33,100 1,740 Climbing Kansas City Center
06:16PM 36.1372 -95.9169 60° Northeast 479 551 34,800 1,380 Climbing Kansas City Center
06:17PM 36.2019 -95.7742 61° Northeast 477 549 36,000 540 Climbing Kansas City Center
06:19PM 36.2758 -95.6225 59° Northeast 474 545 36,000 480 Level Kansas City Center
06:20PM 36.3444 -95.4850 58° Northeast 471 542 37,000 480 Climbing Kansas City Center
06:21PM 36.4117 -95.3489 58° Northeast 467 537 37,000  Level Kansas City Center
06:22PM 36.4756 -95.2100 60° Northeast 465 535 37,000  Level Kansas City Center
06:23PM 36.5436 -95.0681 59° Northeast 464 534 37,000  Level Kansas City Center
06:24PM 36.6092 -94.9292 60° Northeast 465 535 37,000  Level Kansas City Center
06:25PM 36.6886 -94.7631 59° Northeast 465 535 37,000  Level Kansas City Center
06:26PM 36.7547 -94.6231 59° Northeast 468 539 37,000  Level Kansas City Center
06:27PM 36.8206 -94.4833 59° Northeast 466 536 37,000  Level Kansas City Center
06:28PM 36.9083 -94.3708 46° Northeast 456 525 37,000  Level Kansas City Center
06:29PM 37.0083 -94.2722 38° Northeast 455 524 37,000  Level Kansas City Center
06:30PM 37.1086 -94.1742 38° Northeast 456 525 37,000  Level Kansas City Center
06:31PM 37.2100 -94.0731 38° Northeast 456 525 37,000  Level Kansas City Center
06:32PM 37.3303 -93.9531 38° Northeast 457 526 37,000  Level Kansas City Center
06:33PM 37.4319 -93.8533 38° Northeast 460 529 37,000  Level Kansas City Center
06:34PM 37.5328 -93.7533 38° Northeast 460 529 37,000  Level Kansas City Center
06:35PM 37.6333 -93.6522 39° Northeast 460 529 37,000  Level Kansas City Center
06:36PM 37.7356 -93.5519 38° Northeast 461 531 37,000  Level Kansas City Center
06:37PM 37.8364 -93.4481 39° Northeast 465 535 37,000  Level Kansas City Center
06:38PM 37.9383 -93.3467 38° Northeast 463 533 37,000  Level Kansas City Center
06:39PM 38.0578 -93.2239 39° Northeast 460 529 37,000  Level Kansas City Center
06:40PM 38.1583 -93.1211 39° Northeast 460 529 37,000  Level Kansas City Center
06:41PM 38.2611 -93.0181 38° Northeast 464 534 37,000  Level Kansas City Center
06:42PM 38.3589 -92.9164 39° Northeast 456 525 37,000 120 Level Kansas City Center
06:43PM 38.4581 -92.8142 39° Northeast 453 521 37,300 600 Climbing Kansas City Center
06:45PM 38.6572 -92.6058 39° Northeast 459 528 39,000 540 Climbing Kansas City Center
06:46PM 38.7544 -92.5042 39° Northeast 453 521 39,000  Level Kansas City Center
06:47PM 38.8514 -92.4039 39° Northeast 448 516 39,000  Level Kansas City Center
06:48PM 38.9667 -92.2811 40° Northeast 445 512 39,000  Level Kansas City Center
06:49PM 39.0639 -92.1822 38° Northeast 445 512 39,000  Level Kansas City Center
06:51PM 39.1539 -92.0731 43° Northeast 441 507 39,000  Level Kansas City Center
06:52PM 39.2364 -91.9469 50° Northeast 450 518 39,000 -180 Level Kansas City Center
06:53PM 39.3186 -91.8286 48° Northeast 454 522 38,700 -720 Descending Kansas City Center
06:54PM 39.4003 -91.7097 48° Northeast 450 518 37,600 -1,020 Descending Kansas City Center
06:55PM 39.4878 -91.5822 48° Northeast 447 514 36,600 -1,020 Descending Kansas City Center
06:56PM 39.5803 -91.4469 48° Northeast 449 517 35,600 -840 Descending Kansas City Center
06:57PM 39.6642 -91.3253 48° Northeast 454 522 35,000 -300 Descending Kansas City Center
06:58PM 39.7594 -91.1844 49° Northeast 462 532 35,000  Level Kansas City Center
06:59PM 39.8319 -91.0769 49° Northeast 460 529 35,000 -780 Level Kansas City Center
07:00PM 39.9261 -90.9364 49° Northeast 457 526 33,500 -1,740 Descending Kansas City Center
07:01PM 40.0072 -90.8128 49° Northeast 453 521 31,400 -1,260 Descending Kansas City Center
07:02PM 40.0872 -90.6950 48° Northeast 441 507 31,000 -240 Descending Kansas City Center
07:03PM 40.1658 -90.5764 49° Northeast 436 502 31,000  Level Kansas City Center
07:03PM 40.1964 -90.5306 49° Northeast 429 494 31,000  Level Chicago Center
07:04PM 40.2758 -90.4114 49° Northeast 433 498 31,000  Level Chicago Center
07:05PM 40.3533 -90.2928 49° Northeast 430 495 31,000  Level Chicago Center
07:06PM 40.4308 -90.1750 49° Northeast 428 493 31,000 -420 Level Chicago Center
07:07PM 40.5161 -90.0436 49° Northeast 444 511 30,200 -1,800 Descending Chicago Center
07:08PM 40.6125 -89.8953 49° Northeast 448 516 27,400 -2,460 Descending Chicago Center
07:09PM 40.6883 -89.7706 51° Northeast 442 509 25,200 -2,280 Descending Chicago Center
07:10PM 40.7461 -89.6394 60° Northeast 417 480 22,800 -2,520 Descending Chicago Center
07:11PM 40.8056 -89.5036 60° Northeast 394 453 20,000 -2,280 Descending Chicago Center
07:13PM 40.8569 -89.3833 61° Northeast 379 436 18,100 -1,500 Descending Chicago Center
07:14PM 40.9086 -89.2647 60° Northeast 374 430 17,000 -1,080 Descending Chicago Center
07:15PM 40.9750 -89.1669 48° Northeast 362 417 15,900 -1,080 Descending Chicago Center
07:16PM 41.0464 -89.0619 48° Northeast 352 405 14,800 -1,140 Descending Chicago Center
07:17PM 41.1111 -88.9689 47° Northeast 346 398 13,600 -1,800 Descending Chicago Center
07:18PM 41.1717 -88.8775 49° Northeast 336 387 11,200 -1,980 Descending Chicago Center
07:19PM 41.2419 -88.7736 48° Northeast 318 366 9,600 -1,500 Descending Chicago Center
07:20PM 41.2942 -88.6956 48° Northeast 290 334 8,100 -1,440 Descending Chicago Center
07:21PM 41.3472 -88.6169 48° Northeast 287 330 6,700 -1,080 Descending Chicago Center
07:22PM 41.3978 -88.5403 49° Northeast 279 321 5,900 -420 Descending Chicago Center
07:23PM 41.4472 -88.4658 48° Northeast 272 313 5,900  Level Chicago Center
07:24PM 41.4975 -88.3917 48° Northeast 271 312 5,900  Level Chicago Center
07:25PM 41.5436 -88.2897 59° Northeast 276 318 5,900 -120 Level Chicago Center
07:26PM 41.5586 -88.1897 79° East 276 318 5,700 -840 Descending Chicago Center
07:27PM 41.5728 -88.0889 79° East 274 315 4,200 -900 Descending Chicago Center
07:28PM 41.5922 -88.0014 73° East 256 295 3,900 -180 Descending Chicago Center
07:29PM 41.6361 -87.9381 47° Northeast 242 278 3,900 -300 Level Chicago Center
07:30PM 41.6800 -87.8856 42° Northeast 226 260 3,400 -780 Descending Chicago Center
07:31PM 41.7231 -87.8317 43° Northeast 197 227 2,300 -1,020 Descending Chicago Center
07:32PM 41.7503 -87.7969 44° Northeast 162 186 1,400 -780 Descending Chicago Center
07:33PM 41.7778 -87.7625 43° Northeast 144 166 800 -600 Descending Chicago Center
07:35PM 41.7833 -87.7500 North  Level FlightAware Approximate